createdAt,value
2017-06-02T00:00:14.694Z,0
2017-06-02T00:01:16.184Z,0
2017-06-02T00:02:17.648Z,0
2017-06-02T00:03:19.112Z,0
2017-06-02T00:04:20.672Z,0
2017-06-02T00:05:22.142Z,0
2017-06-02T00:06:23.594Z,0
2017-06-02T00:07:25.054Z,0
2017-06-02T00:08:26.506Z,0
2017-06-02T00:09:27.965Z,0
2017-06-02T00:10:29.434Z,0
2017-06-02T00:11:30.889Z,0
2017-06-02T00:12:32.343Z,0
2017-06-02T00:13:33.795Z,0
2017-06-02T00:14:35.249Z,0
2017-06-02T00:15:36.707Z,0
2017-06-02T00:16:38.178Z,0
2017-06-02T00:17:39.644Z,0
2017-06-02T00:18:41.102Z,0
2017-06-02T00:19:42.565Z,0
2017-06-02T00:20:44.036Z,0
2017-06-02T00:21:45.498Z,0
2017-06-02T00:22:46.957Z,0
2017-06-02T00:23:48.417Z,0
2017-06-02T00:24:49.872Z,0
2017-06-02T00:25:51.335Z,0
2017-06-02T00:26:52.795Z,0
2017-06-02T00:27:54.256Z,0
2017-06-02T00:28:55.723Z,0
2017-06-02T00:29:57.169Z,0
2017-06-02T00:30:58.624Z,0
2017-06-02T00:32:00.086Z,0
2017-06-02T00:33:01.537Z,0
2017-06-02T00:34:02.994Z,0
2017-06-02T00:35:04.451Z,0
2017-06-02T00:36:06.439Z,0
2017-06-02T00:37:07.895Z,0
2017-06-02T00:38:09.349Z,0
2017-06-02T00:39:10.808Z,0
2017-06-02T00:40:12.280Z,0
2017-06-02T00:41:13.754Z,0
2017-06-02T00:42:15.214Z,0
2017-06-02T00:43:16.673Z,0
2017-06-02T00:44:18.130Z,0
2017-06-02T00:45:19.583Z,0
2017-06-02T00:46:21.059Z,0
2017-06-02T00:47:22.510Z,0
2017-06-02T00:48:24.160Z,0
2017-06-02T00:49:25.992Z,0
2017-06-02T00:50:27.597Z,0
2017-06-02T00:51:29.134Z,0
2017-06-02T00:52:30.592Z,0
2017-06-02T00:53:32.048Z,0
2017-06-02T00:54:33.501Z,0
2017-06-02T00:55:34.957Z,0
2017-06-02T00:56:36.430Z,0
2017-06-02T00:57:37.887Z,0
2017-06-02T00:58:39.342Z,0
2017-06-02T00:59:40.806Z,0
2017-06-02T01:00:42.270Z,0
2017-06-02T01:01:43.724Z,0
2017-06-02T01:02:45.181Z,0
2017-06-02T01:03:46.657Z,0
2017-06-02T01:04:48.108Z,0
2017-06-02T01:05:49.565Z,0
2017-06-02T01:06:51.022Z,0
2017-06-02T01:07:52.474Z,0
2017-06-02T01:08:53.930Z,0
2017-06-02T01:09:55.387Z,0
2017-06-02T01:10:56.842Z,0
2017-06-02T01:11:58.292Z,0
2017-06-02T01:12:59.751Z,0
2017-06-02T01:14:01.215Z,0
2017-06-02T01:15:02.671Z,0
2017-06-02T01:16:04.142Z,0
2017-06-02T01:17:05.599Z,0
2017-06-02T01:18:07.061Z,0
2017-06-02T01:19:08.517Z,0
2017-06-02T01:20:09.979Z,0
2017-06-02T01:21:11.432Z,0
2017-06-02T01:22:12.896Z,0
2017-06-02T01:23:14.357Z,0
2017-06-02T01:24:15.814Z,0
2017-06-02T01:25:17.266Z,0
2017-06-02T01:26:18.723Z,0
2017-06-02T01:27:20.178Z,0
2017-06-02T01:28:21.661Z,0
2017-06-02T01:29:23.121Z,0
2017-06-02T01:30:24.576Z,0
2017-06-02T01:31:26.038Z,0
2017-06-02T01:32:27.494Z,0
2017-06-02T01:33:28.943Z,0
2017-06-02T01:34:30.399Z,0
2017-06-02T01:35:31.858Z,0
2017-06-02T01:36:33.312Z,0
2017-06-02T01:37:34.765Z,0
2017-06-02T01:38:36.221Z,0
2017-06-02T01:39:37.697Z,0
2017-06-02T01:40:39.145Z,0
2017-06-02T01:41:40.613Z,0
2017-06-02T01:42:42.062Z,0
2017-06-02T01:43:43.523Z,0
2017-06-02T01:44:44.984Z,0
2017-06-02T01:45:46.441Z,0
2017-06-02T01:46:47.922Z,0
2017-06-02T01:47:49.373Z,0
2017-06-02T01:48:50.830Z,0
2017-06-02T01:49:52.287Z,0
2017-06-02T01:50:53.746Z,0
2017-06-02T01:51:55.204Z,0
2017-06-02T01:52:56.657Z,0
2017-06-02T01:53:58.108Z,0
2017-06-02T01:54:59.562Z,0
2017-06-02T01:56:01.015Z,0
2017-06-02T01:57:02.468Z,0
2017-06-02T01:58:03.918Z,0
2017-06-02T01:59:05.371Z,0
2017-06-02T02:00:06.832Z,0
2017-06-02T02:01:08.283Z,0
2017-06-02T02:02:09.729Z,0
2017-06-02T02:03:11.186Z,0
2017-06-02T02:04:12.644Z,0
2017-06-02T02:05:14.100Z,0
2017-06-02T02:06:15.569Z,0
2017-06-02T02:07:17.037Z,0
2017-06-02T02:08:18.490Z,0
2017-06-02T02:09:19.941Z,0
2017-06-02T02:10:21.411Z,0
2017-06-02T02:11:22.865Z,0
2017-06-02T02:12:24.322Z,0
2017-06-02T02:13:25.773Z,0
2017-06-02T02:14:27.234Z,0
2017-06-02T02:15:28.702Z,0
2017-06-02T02:16:30.155Z,0
2017-06-02T02:17:31.618Z,0
2017-06-02T02:18:33.062Z,0
2017-06-02T02:19:34.526Z,0
2017-06-02T02:20:35.980Z,0
2017-06-02T02:21:37.435Z,0
2017-06-02T02:22:38.888Z,0
2017-06-02T02:23:40.340Z,0
2017-06-02T02:24:41.812Z,0
2017-06-02T02:25:43.262Z,0
2017-06-02T02:26:44.718Z,0
2017-06-02T02:27:46.168Z,0
2017-06-02T02:28:47.635Z,0
2017-06-02T02:29:49.090Z,0
2017-06-02T02:30:50.550Z,0
2017-06-02T02:31:52.004Z,0
2017-06-02T02:32:53.457Z,0
2017-06-02T02:33:54.914Z,0
2017-06-02T02:34:56.440Z,0
2017-06-02T02:35:57.897Z,0
2017-06-02T02:36:59.357Z,0
2017-06-02T02:38:00.816Z,0
2017-06-02T02:39:02.286Z,0
2017-06-02T02:40:03.743Z,0
2017-06-02T02:41:05.207Z,0
2017-06-02T02:42:06.685Z,0
2017-06-02T02:43:08.141Z,0
2017-06-02T02:44:09.668Z,0
2017-06-02T02:45:11.132Z,0
2017-06-02T02:46:12.600Z,0
2017-06-02T02:47:14.053Z,0
2017-06-02T02:48:15.510Z,0
2017-06-02T02:49:16.968Z,0
2017-06-02T02:50:18.426Z,0
2017-06-02T02:51:19.876Z,0
2017-06-02T02:52:21.329Z,0
2017-06-02T02:53:22.785Z,0
2017-06-02T02:54:24.239Z,0
2017-06-02T02:55:25.709Z,0
2017-06-02T02:56:27.186Z,0
2017-06-02T02:57:28.633Z,0
2017-06-02T02:58:30.092Z,0
2017-06-02T02:59:31.547Z,0
2017-06-02T03:00:33.009Z,0
2017-06-02T03:01:34.461Z,5
2017-06-02T03:02:35.918Z,5
2017-06-02T03:03:37.375Z,5
2017-06-02T03:04:38.833Z,5
2017-06-02T03:05:40.288Z,5
2017-06-02T03:06:41.768Z,5
2017-06-02T03:07:43.232Z,5
2017-06-02T03:08:44.693Z,5
2017-06-02T03:09:46.152Z,10
2017-06-02T03:10:47.602Z,10
2017-06-02T03:11:49.068Z,10
2017-06-02T03:12:50.519Z,10
2017-06-02T03:13:51.973Z,10
2017-06-02T03:14:53.430Z,15
2017-06-02T03:15:54.887Z,15
2017-06-02T03:16:56.354Z,15
2017-06-02T03:17:57.814Z,15
2017-06-02T03:18:59.272Z,20
2017-06-02T03:20:00.724Z,20
2017-06-02T03:21:02.179Z,20
2017-06-02T03:22:03.637Z,20
2017-06-02T03:23:05.093Z,25
2017-06-02T03:24:06.554Z,25
2017-06-02T03:25:08.020Z,25
2017-06-02T03:26:09.497Z,30
2017-06-02T03:27:10.944Z,30
2017-06-02T03:28:12.399Z,35
2017-06-02T03:29:13.858Z,35
2017-06-02T03:30:15.315Z,35
2017-06-02T03:31:16.786Z,40
2017-06-02T03:32:18.239Z,40
2017-06-02T03:33:19.697Z,45
2017-06-02T03:34:21.221Z,45
2017-06-02T03:35:22.680Z,45
2017-06-02T03:36:24.144Z,50
2017-06-02T03:37:25.601Z,50
2017-06-02T03:38:27.061Z,50
2017-06-02T03:39:28.519Z,55
2017-06-02T03:40:29.977Z,55
2017-06-02T03:41:31.434Z,60
2017-06-02T03:42:32.896Z,65
2017-06-02T03:43:34.359Z,65
2017-06-02T03:44:35.817Z,70
2017-06-02T03:45:37.276Z,70
2017-06-02T03:46:38.738Z,70
2017-06-02T03:47:40.199Z,70
2017-06-02T03:48:41.659Z,75
2017-06-02T03:49:43.115Z,75
2017-06-02T03:50:44.574Z,80
2017-06-02T03:51:46.031Z,85
2017-06-02T03:52:47.496Z,85
2017-06-02T03:53:48.953Z,90
2017-06-02T03:54:50.408Z,90
2017-06-02T03:55:51.864Z,95
2017-06-02T03:56:53.327Z,95
2017-06-02T03:57:54.786Z,100
2017-06-02T03:58:56.248Z,100
2017-06-02T03:59:57.705Z,105
2017-06-02T04:00:59.165Z,110
2017-06-02T04:02:00.622Z,110
2017-06-02T04:03:02.079Z,115
2017-06-02T04:04:03.561Z,115
2017-06-02T04:05:05.018Z,120
2017-06-02T04:06:07.997Z,125
2017-06-02T04:07:09.459Z,125
2017-06-02T04:08:10.921Z,130
2017-06-02T04:09:12.385Z,130
2017-06-02T04:10:13.844Z,130
2017-06-02T04:11:15.295Z,135
2017-06-02T04:12:16.751Z,135
2017-06-02T04:13:18.210Z,140
2017-06-02T04:14:19.670Z,145
2017-06-02T04:15:21.133Z,145
2017-06-02T04:16:22.601Z,155
2017-06-02T04:17:24.057Z,155
2017-06-02T04:18:25.515Z,155
2017-06-02T04:19:26.983Z,160
2017-06-02T04:20:28.448Z,165
2017-06-02T04:21:29.906Z,170
2017-06-02T04:22:31.366Z,170
2017-06-02T04:23:32.827Z,175
2017-06-02T04:24:34.286Z,180
2017-06-02T04:25:35.742Z,190
2017-06-02T04:26:37.205Z,195
2017-06-02T04:27:38.662Z,205
2017-06-02T04:28:40.118Z,215
2017-06-02T04:29:41.576Z,220
2017-06-02T04:30:43.053Z,220
2017-06-02T04:31:44.513Z,225
2017-06-02T04:32:45.971Z,230
2017-06-02T04:33:47.431Z,230
2017-06-02T04:34:48.891Z,230
2017-06-02T04:35:50.351Z,230
2017-06-02T04:36:51.818Z,230
2017-06-02T04:37:53.279Z,235
2017-06-02T04:38:54.744Z,245
2017-06-02T04:39:56.229Z,245
2017-06-02T04:40:57.694Z,245
2017-06-02T04:41:59.153Z,245
2017-06-02T04:43:00.623Z,250
2017-06-02T04:44:02.091Z,245
2017-06-02T04:45:03.565Z,250
2017-06-02T04:46:05.035Z,230
2017-06-02T04:47:06.527Z,235
2017-06-02T04:48:07.990Z,230
2017-06-02T04:49:09.461Z,235
2017-06-02T04:50:10.988Z,240
2017-06-02T04:51:12.450Z,255
2017-06-02T04:52:13.908Z,255
2017-06-02T04:53:15.380Z,260
2017-06-02T04:54:16.857Z,270
2017-06-02T04:55:18.315Z,275
2017-06-02T04:56:19.783Z,275
2017-06-02T04:57:21.259Z,325
2017-06-02T04:58:22.767Z,345
2017-06-02T04:59:24.234Z,280
2017-06-02T05:00:25.703Z,285
2017-06-02T05:01:27.169Z,310
2017-06-02T05:02:28.655Z,295
2017-06-02T05:03:30.102Z,315
2017-06-02T05:04:31.562Z,310
2017-06-02T05:05:33.028Z,315
2017-06-02T05:06:34.491Z,330
2017-06-02T05:07:35.985Z,360
2017-06-02T05:08:37.451Z,410
2017-06-02T05:09:38.917Z,355
2017-06-02T05:10:40.388Z,400
2017-06-02T05:11:41.848Z,355
2017-06-02T05:12:43.351Z,400
2017-06-02T05:13:44.822Z,370
2017-06-02T05:14:46.290Z,390
2017-06-02T05:15:47.758Z,415
2017-06-02T05:16:49.223Z,425
2017-06-02T05:17:50.697Z,385
2017-06-02T05:18:52.173Z,400
2017-06-02T05:19:53.631Z,395
2017-06-02T05:20:55.107Z,370
2017-06-02T05:21:56.576Z,420
2017-06-02T05:22:58.035Z,395
2017-06-02T05:23:59.510Z,430
2017-06-02T05:25:00.991Z,485
2017-06-02T05:26:02.452Z,485
2017-06-02T05:27:03.921Z,495
2017-06-02T05:28:05.389Z,485
2017-06-02T05:29:06.864Z,495
2017-06-02T05:30:08.334Z,510
2017-06-02T05:31:09.806Z,520
2017-06-02T05:32:11.277Z,510
2017-06-02T05:33:12.747Z,520
2017-06-02T05:34:14.250Z,530
2017-06-02T05:35:15.724Z,520
2017-06-02T05:36:17.196Z,525
2017-06-02T05:37:18.665Z,525
2017-06-02T05:38:20.133Z,525
2017-06-02T05:39:21.605Z,530
2017-06-02T05:40:23.101Z,540
2017-06-02T05:41:24.570Z,540
2017-06-02T05:42:26.050Z,535
2017-06-02T05:43:27.518Z,540
2017-06-02T05:44:28.990Z,555
2017-06-02T05:45:30.476Z,560
2017-06-02T05:46:31.963Z,575
2017-06-02T05:47:33.419Z,585
2017-06-02T05:48:34.885Z,595
2017-06-02T05:49:36.367Z,610
2017-06-02T05:50:38.081Z,615
2017-06-02T05:51:39.551Z,625
2017-06-02T05:52:41.025Z,635
2017-06-02T05:53:42.501Z,650
2017-06-02T05:54:43.978Z,660
2017-06-02T05:55:45.447Z,665
2017-06-02T05:56:46.917Z,680
2017-06-02T05:57:48.409Z,690
2017-06-02T05:58:49.891Z,690
2017-06-02T05:59:51.358Z,695
2017-06-02T06:00:52.845Z,700
2017-06-02T06:01:54.333Z,710
2017-06-02T06:02:55.811Z,715
2017-06-02T06:03:57.287Z,720
2017-06-02T06:04:58.757Z,745
2017-06-02T06:06:00.256Z,750
2017-06-02T06:07:01.720Z,760
2017-06-02T06:08:03.191Z,780
2017-06-02T06:09:04.675Z,795
2017-06-02T06:10:06.143Z,805
2017-06-02T06:11:07.658Z,820
2017-06-02T06:12:09.127Z,835
2017-06-02T06:13:10.612Z,840
2017-06-02T06:14:12.093Z,860
2017-06-02T06:15:13.557Z,855
2017-06-02T06:16:15.051Z,870
2017-06-02T06:17:16.548Z,880
2017-06-02T06:18:18.021Z,895
2017-06-02T06:19:19.562Z,890
2017-06-02T06:20:21.057Z,895
2017-06-02T06:21:22.547Z,925
2017-06-02T06:22:24.026Z,925
2017-06-02T06:23:25.531Z,935
2017-06-02T06:24:27.001Z,970
2017-06-02T06:25:28.475Z,985
2017-06-02T06:26:29.951Z,995
2017-06-02T06:27:31.427Z,1005
2017-06-02T06:28:32.896Z,1000
2017-06-02T06:29:34.378Z,1000
2017-06-02T06:30:35.859Z,1025
2017-06-02T06:31:37.347Z,1035
2017-06-02T06:32:38.833Z,1030
2017-06-02T06:33:40.311Z,1035
2017-06-02T06:34:41.866Z,1055
2017-06-02T06:35:43.291Z,1065
2017-06-02T06:36:44.779Z,1055
2017-06-02T06:37:46.249Z,1010
2017-06-02T06:38:47.727Z,960
2017-06-02T06:39:49.211Z,925
2017-06-02T06:40:50.725Z,905
2017-06-02T06:41:52.203Z,885
2017-06-02T06:42:53.689Z,885
2017-06-02T06:43:55.171Z,930
2017-06-02T06:44:56.653Z,1060
2017-06-02T06:45:58.133Z,1180
2017-06-02T06:46:59.607Z,1210
2017-06-02T06:48:01.088Z,1180
2017-06-02T06:49:02.573Z,1150
2017-06-02T06:50:04.063Z,1160
2017-06-02T06:51:05.551Z,1195
2017-06-02T06:52:07.031Z,1240
2017-06-02T06:53:08.515Z,1290
2017-06-02T06:54:10.012Z,1295
2017-06-02T06:55:11.533Z,1345
2017-06-02T06:56:13.047Z,1350
2017-06-02T06:57:14.519Z,1405
2017-06-02T06:58:16.000Z,1430
2017-06-02T06:59:17.476Z,1435
2017-06-02T07:00:18.963Z,1490
2017-06-02T07:01:20.458Z,1505
2017-06-02T07:02:21.934Z,1270
2017-06-02T07:03:23.422Z,1555
2017-06-02T07:04:24.906Z,1670
2017-06-02T07:05:26.386Z,1550
2017-06-02T07:06:27.895Z,1015
2017-06-02T07:07:29.371Z,980
2017-06-02T07:08:30.862Z,1045
2017-06-02T07:09:32.329Z,1460
2017-06-02T07:10:33.816Z,1345
2017-06-02T07:11:35.306Z,1590
2017-06-02T07:12:36.806Z,1315
2017-06-02T07:13:38.290Z,1215
2017-06-02T07:14:39.791Z,1005
2017-06-02T07:15:41.276Z,1150
2017-06-02T07:16:42.756Z,1115
2017-06-02T07:17:44.242Z,1630
2017-06-02T07:18:45.736Z,1630
2017-06-02T07:19:47.216Z,1465
2017-06-02T07:20:48.695Z,1225
2017-06-02T07:21:50.179Z,1250
2017-06-02T07:22:51.668Z,1190
2017-06-02T07:23:53.181Z,1775
2017-06-02T07:24:54.633Z,1640
2017-06-02T07:25:56.113Z,1110
2017-06-02T07:26:57.586Z,1635
2017-06-02T07:27:59.069Z,1000
2017-06-02T07:29:00.554Z,1720
2017-06-02T07:30:02.039Z,1005
2017-06-02T07:31:03.530Z,1020
2017-06-02T07:32:05.002Z,1665
2017-06-02T07:33:06.474Z,1630
2017-06-02T07:34:07.959Z,1675
2017-06-02T07:35:09.440Z,1570
2017-06-02T07:36:10.926Z,1670
2017-06-02T07:37:12.412Z,1250
2017-06-02T07:38:13.899Z,1290
2017-06-02T07:39:15.406Z,1815
2017-06-02T07:40:16.883Z,1820
2017-06-02T07:41:18.368Z,1840
2017-06-02T07:42:19.882Z,2010
2017-06-02T07:43:21.384Z,1960
2017-06-02T07:44:22.879Z,1970
2017-06-02T07:45:24.355Z,1975
2017-06-02T07:46:25.838Z,1985
2017-06-02T07:47:27.346Z,2010
2017-06-02T07:48:28.824Z,1865
2017-06-02T07:49:30.301Z,1985
2017-06-02T07:50:31.785Z,2035
2017-06-02T07:51:33.276Z,1305
2017-06-02T07:52:34.748Z,1365
2017-06-02T07:53:36.229Z,1555
2017-06-02T07:54:37.722Z,1260
2017-06-02T07:55:39.201Z,1165
2017-06-02T07:56:40.680Z,1170
2017-06-02T07:57:42.164Z,1185
2017-06-02T07:58:43.649Z,2055
2017-06-02T07:59:45.132Z,1210
2017-06-02T08:00:46.606Z,1185
2017-06-02T08:01:48.085Z,1225
2017-06-02T08:02:49.570Z,1435
2017-06-02T08:03:51.049Z,2190
2017-06-02T08:04:52.529Z,1345
2017-06-02T08:05:54.015Z,1290
2017-06-02T08:06:55.513Z,1255
2017-06-02T08:07:56.989Z,1205
2017-06-02T08:08:58.468Z,1190
2017-06-02T08:09:59.951Z,1580
2017-06-02T08:11:01.424Z,1280
2017-06-02T08:12:02.902Z,1975
2017-06-02T08:13:04.381Z,1900
2017-06-02T08:14:05.868Z,1365
2017-06-02T08:15:07.345Z,1885
2017-06-02T08:16:08.847Z,1560
2017-06-02T08:17:10.340Z,1820
2017-06-02T08:18:11.816Z,1760
2017-06-02T08:19:13.302Z,1815
2017-06-02T08:20:14.798Z,1510
2017-06-02T08:21:16.297Z,1545
2017-06-02T08:22:17.779Z,1595
2017-06-02T08:23:19.254Z,1705
2017-06-02T08:24:20.845Z,1825
2017-06-02T08:25:22.330Z,1800
2017-06-02T08:26:23.835Z,2290
2017-06-02T08:27:25.326Z,1995
2017-06-02T08:28:26.803Z,2235
2017-06-02T08:29:28.293Z,2225
2017-06-02T08:30:29.786Z,2360
2017-06-02T08:31:31.268Z,2240
2017-06-02T08:32:32.751Z,2360
2017-06-02T08:33:34.271Z,2335
2017-06-02T08:34:35.764Z,2315
2017-06-02T08:35:37.251Z,2255
2017-06-02T08:36:38.746Z,2170
2017-06-02T08:37:40.243Z,2020
2017-06-02T08:38:41.747Z,1995
2017-06-02T08:39:43.213Z,2145
2017-06-02T08:40:44.725Z,2385
2017-06-02T08:41:46.210Z,2230
2017-06-02T08:42:47.705Z,2330
2017-06-02T08:43:49.180Z,2335
2017-06-02T08:44:50.751Z,2320
2017-06-02T08:45:52.268Z,2440
2017-06-02T08:46:53.768Z,2565
2017-06-02T08:47:55.254Z,2490
2017-06-02T08:48:56.742Z,2510
2017-06-02T08:49:58.221Z,2480
2017-06-02T08:50:59.711Z,2100
2017-06-02T08:52:01.199Z,2170
2017-06-02T08:53:02.683Z,1945
2017-06-02T08:54:04.171Z,1815
2017-06-02T08:55:05.658Z,1645
2017-06-02T08:56:07.151Z,1740
2017-06-02T08:57:08.631Z,1810
2017-06-02T08:58:10.117Z,2000
2017-06-02T08:59:11.605Z,2075
2017-06-02T09:00:13.094Z,1885
2017-06-02T09:01:14.589Z,1825
2017-06-02T09:02:16.105Z,1775
2017-06-02T09:03:17.594Z,1750
2017-06-02T09:04:19.082Z,1635
2017-06-02T09:05:20.566Z,1605
2017-06-02T09:06:22.058Z,1600
2017-06-02T09:07:23.535Z,1435
2017-06-02T09:08:25.023Z,1395
2017-06-02T09:09:26.514Z,1400
2017-06-02T09:10:28.010Z,1415
2017-06-02T09:11:29.491Z,1460
2017-06-02T09:12:30.976Z,1400
2017-06-02T09:13:32.469Z,1620
2017-06-02T09:14:33.963Z,1465
2017-06-02T09:15:35.446Z,1480
2017-06-02T09:16:36.927Z,2090
2017-06-02T09:17:38.419Z,2370
2017-06-02T09:18:39.900Z,1815
2017-06-02T09:19:41.394Z,1635
2017-06-02T09:20:42.876Z,2175
2017-06-02T09:21:44.356Z,2475
2017-06-02T09:22:45.835Z,2130
2017-06-02T09:23:47.371Z,2435
2017-06-02T09:24:48.852Z,2650
2017-06-02T09:25:50.330Z,2575
2017-06-02T09:26:51.820Z,2080
2017-06-02T09:27:53.316Z,2595
2017-06-02T09:28:54.808Z,2710
2017-06-02T09:29:56.287Z,1985
2017-06-02T09:30:57.786Z,2095
2017-06-02T09:31:59.286Z,2595
2017-06-02T09:33:00.773Z,2545
2017-06-02T09:34:02.259Z,2435
2017-06-02T09:35:03.741Z,2390
2017-06-02T09:36:05.238Z,2720
2017-06-02T09:37:06.718Z,2785
2017-06-02T09:38:08.203Z,2760
2017-06-02T09:39:09.693Z,2755
2017-06-02T09:40:11.191Z,2760
2017-06-02T09:41:12.707Z,2765
2017-06-02T09:42:14.196Z,2750
2017-06-02T09:43:15.689Z,2765
2017-06-02T09:44:17.171Z,2780
2017-06-02T09:45:18.665Z,2760
2017-06-02T09:46:20.168Z,2865
2017-06-02T09:47:21.649Z,2845
2017-06-02T09:48:23.152Z,2825
2017-06-02T09:49:24.631Z,2890
2017-06-02T09:50:26.140Z,2930
2017-06-02T09:51:27.608Z,2900
2017-06-02T09:52:29.101Z,2850
2017-06-02T09:53:30.608Z,2915
2017-06-02T09:54:32.088Z,2870
2017-06-02T09:55:33.571Z,2830
2017-06-02T09:56:35.056Z,2930
2017-06-02T09:57:36.541Z,2955
2017-06-02T09:58:38.025Z,2925
2017-06-02T09:59:39.504Z,2885
2017-06-02T10:00:40.989Z,2965
2017-06-02T10:01:42.480Z,2885
2017-06-02T10:02:43.964Z,2865
2017-06-02T10:03:45.440Z,2855
2017-06-02T10:04:46.930Z,3020
2017-06-02T10:05:48.412Z,3035
2017-06-02T10:06:49.899Z,3125
2017-06-02T10:07:51.389Z,3145
2017-06-02T10:08:52.867Z,2980
2017-06-02T10:09:54.350Z,3005
2017-06-02T10:10:55.835Z,3150
2017-06-02T10:11:57.329Z,3080
2017-06-02T10:12:58.813Z,3045
2017-06-02T10:14:00.312Z,3220
2017-06-02T10:15:01.799Z,3325
2017-06-02T10:16:03.287Z,3080
2017-06-02T10:17:04.783Z,3000
2017-06-02T10:18:06.268Z,2840
2017-06-02T10:19:07.752Z,2905
2017-06-02T10:20:09.232Z,3195
2017-06-02T10:21:10.722Z,2985
2017-06-02T10:22:12.210Z,2940
2017-06-02T10:23:13.699Z,2985
2017-06-02T10:24:15.202Z,3050
2017-06-02T10:25:16.686Z,3030
2017-06-02T10:26:18.186Z,3000
2017-06-02T10:27:19.680Z,3065
2017-06-02T10:28:21.182Z,3015
2017-06-02T10:29:22.661Z,3070
2017-06-02T10:30:24.143Z,3165
2017-06-02T10:31:25.625Z,3190
2017-06-02T10:32:27.128Z,3115
2017-06-02T10:33:28.614Z,3155
2017-06-02T10:34:30.096Z,3105
2017-06-02T10:35:31.590Z,2880
2017-06-02T10:36:33.081Z,2700
2017-06-02T10:37:34.570Z,2950
2017-06-02T10:38:36.057Z,3155
2017-06-02T10:39:37.547Z,3185
2017-06-02T10:40:39.030Z,3060
2017-06-02T10:41:40.527Z,2960
2017-06-02T10:42:42.032Z,3220
2017-06-02T10:43:43.540Z,3225
2017-06-02T10:44:45.015Z,3280
2017-06-02T10:45:46.537Z,3285
2017-06-02T10:46:48.034Z,3280
2017-06-02T10:47:49.522Z,3170
2017-06-02T10:48:51.009Z,3330
2017-06-02T10:49:52.503Z,3495
2017-06-02T10:50:54.008Z,3325
2017-06-02T10:51:55.496Z,3230
2017-06-02T10:52:57.049Z,3275
2017-06-02T10:53:58.538Z,3135
2017-06-02T10:55:00.026Z,3060
2017-06-02T10:56:01.520Z,3090
2017-06-02T10:57:03.006Z,3285
2017-06-02T10:58:04.501Z,3175
2017-06-02T10:59:05.990Z,3070
2017-06-02T11:00:07.474Z,3320
2017-06-02T11:01:08.958Z,3145
2017-06-02T11:02:10.457Z,3275
2017-06-02T11:03:11.956Z,3250
2017-06-02T11:04:13.451Z,3330
2017-06-02T11:05:14.935Z,3320
2017-06-02T11:06:16.430Z,3285
2017-06-02T11:07:17.925Z,3135
2017-06-02T11:08:19.410Z,3170
2017-06-02T11:09:20.896Z,3350
2017-06-02T11:10:22.391Z,3380
2017-06-02T11:11:23.895Z,3490
2017-06-02T11:12:25.381Z,3570
2017-06-02T11:13:26.864Z,3345
2017-06-02T11:14:28.346Z,3385
2017-06-02T11:15:29.849Z,3585
2017-06-02T11:16:31.337Z,3565
2017-06-02T11:17:32.820Z,3425
2017-06-02T11:18:34.306Z,3410
2017-06-02T11:19:35.826Z,3635
2017-06-02T11:20:37.318Z,3400
2017-06-02T11:21:38.813Z,3450
2017-06-02T11:22:40.317Z,3500
2017-06-02T11:23:41.807Z,3465
2017-06-02T11:24:43.307Z,3220
2017-06-02T11:25:44.808Z,2920
2017-06-02T11:26:46.307Z,3270
2017-06-02T11:27:47.797Z,3505
2017-06-02T11:28:49.286Z,3260
2017-06-02T11:29:50.790Z,2905
2017-06-02T11:30:52.287Z,2520
2017-06-02T11:31:53.777Z,2845
2017-06-02T11:32:55.278Z,2840
2017-06-02T11:33:56.774Z,3320
2017-06-02T11:34:58.291Z,1665
2017-06-02T11:35:59.781Z,1700
2017-06-02T11:37:01.318Z,1895
2017-06-02T11:38:02.796Z,3160
2017-06-02T11:39:04.289Z,2930
2017-06-02T11:40:05.795Z,2785
2017-06-02T11:41:07.304Z,3275
2017-06-02T11:42:08.788Z,3525
2017-06-02T11:43:10.270Z,3525
2017-06-02T11:44:11.743Z,1760
2017-06-02T11:45:13.253Z,3215
2017-06-02T11:46:14.734Z,3310
2017-06-02T11:47:16.236Z,3220
2017-06-02T11:48:17.718Z,3255
2017-06-02T11:49:19.214Z,3375
2017-06-02T11:50:20.709Z,3070
2017-06-02T11:51:22.191Z,3325
2017-06-02T11:52:23.677Z,3405
2017-06-02T11:53:25.188Z,3260
2017-06-02T11:54:26.749Z,3345
2017-06-02T11:55:28.239Z,3385
2017-06-02T11:56:29.732Z,3325
2017-06-02T11:57:31.223Z,3420
2017-06-02T11:58:32.750Z,3485
2017-06-02T11:59:34.236Z,3505
2017-06-02T12:00:35.732Z,3515
2017-06-02T12:01:37.223Z,3530
2017-06-02T12:02:38.709Z,3450
2017-06-02T12:03:40.224Z,3535
2017-06-02T12:04:41.707Z,3770
2017-06-02T12:05:43.226Z,2870
2017-06-02T12:06:44.743Z,3780
2017-06-02T12:07:46.224Z,2635
2017-06-02T12:08:47.714Z,3415
2017-06-02T12:09:49.200Z,3590
2017-06-02T12:10:50.693Z,1840
2017-06-02T12:11:52.175Z,3445
2017-06-02T12:12:53.658Z,3330
2017-06-02T12:13:55.147Z,2570
2017-06-02T12:14:56.642Z,2670
2017-06-02T12:15:58.218Z,3415
2017-06-02T12:16:59.583Z,3090
2017-06-02T12:18:01.069Z,3430
2017-06-02T12:19:02.552Z,3445
2017-06-02T12:20:04.033Z,3190
2017-06-02T12:21:05.514Z,3275
2017-06-02T12:22:07.012Z,3075
2017-06-02T12:23:08.501Z,3400
2017-06-02T12:24:09.986Z,3330
2017-06-02T12:25:11.468Z,3265
2017-06-02T12:26:12.962Z,3075
2017-06-02T12:27:14.458Z,1395
2017-06-02T12:28:15.943Z,2370
2017-06-02T12:29:17.435Z,2055
2017-06-02T12:30:18.915Z,1770
2017-06-02T12:31:20.417Z,2915
2017-06-02T12:32:21.892Z,1545
2017-06-02T12:33:23.385Z,1530
2017-06-02T12:34:24.893Z,1890
2017-06-02T12:35:26.382Z,1740
2017-06-02T12:36:27.868Z,1585
2017-06-02T12:37:29.358Z,1485
2017-06-02T12:38:30.854Z,1435
2017-06-02T12:39:32.334Z,1365
2017-06-02T12:40:34.231Z,1250
2017-06-02T12:41:35.716Z,1230
2017-06-02T12:42:37.195Z,1210
2017-06-02T12:43:38.686Z,1195
2017-06-02T12:44:40.177Z,1220
2017-06-02T12:45:41.655Z,1250
2017-06-02T12:46:43.145Z,1270
2017-06-02T12:47:44.653Z,1285
2017-06-02T12:48:46.133Z,1300
2017-06-02T12:49:47.623Z,1335
2017-06-02T12:50:49.107Z,1370
2017-06-02T12:51:50.588Z,1385
2017-06-02T12:52:52.094Z,1340
2017-06-02T12:53:53.570Z,1380
2017-06-02T12:54:55.054Z,2965
2017-06-02T12:55:56.548Z,2890
2017-06-02T12:56:58.017Z,2835
2017-06-02T12:57:59.501Z,2240
2017-06-02T12:59:00.979Z,2270
2017-06-02T13:00:02.464Z,1370
2017-06-02T13:01:03.950Z,1230
2017-06-02T13:02:05.433Z,1170
2017-06-02T13:03:06.917Z,1145
2017-06-02T13:04:08.409Z,1150
2017-06-02T13:05:09.892Z,1215
2017-06-02T13:06:11.368Z,1195
2017-06-02T13:07:12.846Z,1185
2017-06-02T13:08:14.342Z,1230
2017-06-02T13:09:15.825Z,1280
2017-06-02T13:10:17.311Z,1345
2017-06-02T13:11:18.802Z,2910
2017-06-02T13:12:20.306Z,2935
2017-06-02T13:13:21.788Z,3040
2017-06-02T13:14:23.285Z,2980
2017-06-02T13:15:24.777Z,2860
2017-06-02T13:16:26.267Z,2950
2017-06-02T13:17:27.781Z,2995
2017-06-02T13:18:29.257Z,2880
2017-06-02T13:19:30.743Z,2920
2017-06-02T13:20:32.233Z,2985
2017-06-02T13:21:33.719Z,2865
2017-06-02T13:22:35.206Z,3005
2017-06-02T13:23:36.710Z,2910
2017-06-02T13:24:38.234Z,2875
2017-06-02T13:25:39.744Z,2955
2017-06-02T13:26:41.236Z,2875
2017-06-02T13:27:42.718Z,2935
2017-06-02T13:28:44.222Z,2860
2017-06-02T13:29:45.719Z,2805
2017-06-02T13:30:47.220Z,2785
2017-06-02T13:31:48.702Z,2730
2017-06-02T13:32:50.199Z,2750
2017-06-02T13:33:51.689Z,2790
2017-06-02T13:34:53.181Z,2855
2017-06-02T13:35:54.713Z,1170
2017-06-02T13:36:56.230Z,1095
2017-06-02T13:37:57.704Z,1095
2017-06-02T13:38:59.199Z,1105
2017-06-02T13:40:00.679Z,1150
2017-06-02T13:41:02.187Z,1300
2017-06-02T13:42:03.670Z,1405
2017-06-02T13:43:05.174Z,2350
2017-06-02T13:44:06.663Z,2310
2017-06-02T13:45:08.168Z,2610
2017-06-02T13:46:09.658Z,2825
2017-06-02T13:47:11.152Z,2750
2017-06-02T13:48:12.632Z,2845
2017-06-02T13:49:14.127Z,2865
2017-06-02T13:50:15.617Z,2680
2017-06-02T13:51:17.115Z,2670
2017-06-02T13:52:18.604Z,2765
2017-06-02T13:53:20.091Z,2570
2017-06-02T13:54:21.642Z,2755
2017-06-02T13:55:23.139Z,2690
2017-06-02T13:56:24.653Z,2695
2017-06-02T13:57:26.150Z,2665
2017-06-02T13:58:27.648Z,2595
2017-06-02T13:59:29.150Z,2745
2017-06-02T14:00:30.644Z,2665
2017-06-02T14:01:32.154Z,1365
2017-06-02T14:02:33.639Z,1335
2017-06-02T14:03:35.153Z,1385
2017-06-02T14:04:36.654Z,1300
2017-06-02T14:05:38.140Z,2035